sensor_id;sensor_type;location;lat;lon;timestamp;pressure;altitude;pressure_sealevel;temperature;humidity
17209;BME280;8720;48.488;9.202;2022-10-29T00:02:21;97776.59;;;18.90;51.58
17209;BME280;8720;48.488;9.202;2022-10-29T00:04:49;97778.44;;;18.88;51.50
17209;BME280;8720;48.488;9.202;2022-10-29T00:07:16;97782.03;;;18.87;51.59
17209;BME280;8720;48.488;9.202;2022-10-29T00:09:44;97780.28;;;18.86;51.87
17209;BME280;8720;48.488;9.202;2022-10-29T00:12:11;97772.34;;;18.86;51.55
17209;BME280;8720;48.488;9.202;2022-10-29T00:14:39;97774.16;;;18.85;51.33
17209;BME280;8720;48.488;9.202;2022-10-29T00:17:06;97771.44;;;18.87;51.65
17209;BME280;8720;48.488;9.202;2022-10-29T00:19:33;97771.53;;;18.84;51.45
17209;BME280;8720;48.488;9.202;2022-10-29T00:22:00;97776.84;;;18.84;51.74
17209;BME280;8720;48.488;9.202;2022-10-29T00:24:27;97777.78;;;18.83;51.94
17209;BME280;8720;48.488;9.202;2022-10-29T00:26:56;97777.06;;;18.79;51.95
17209;BME280;8720;48.488;9.202;2022-10-29T00:29:23;97779.00;;;18.76;52.15
17209;BME280;8720;48.488;9.202;2022-10-29T00:31:50;97767.81;;;18.69;52.02
17209;BME280;8720;48.488;9.202;2022-10-29T00:34:17;97758.59;;;18.58;51.98
17209;BME280;8720;48.488;9.202;2022-10-29T00:36:44;97764.09;;;18.53;51.85
17209;BME280;8720;48.488;9.202;2022-10-29T00:39:13;97765.75;;;18.56;52.01
17209;BME280;8720;48.488;9.202;2022-10-29T00:41:41;97769.47;;;18.52;52.38
17209;BME280;8720;48.488;9.202;2022-10-29T00:44:30;97765.38;;;18.45;52.17
17209;BME280;8720;48.488;9.202;2022-10-29T00:47:10;97754.47;;;18.31;51.88
17209;BME280;8720;48.488;9.202;2022-10-29T00:49:41;97764.94;;;18.34;52.31
17209;BME280;8720;48.488;9.202;2022-10-29T00:52:11;97765.13;;;18.29;52.13
17209;BME280;8720;48.488;9.202;2022-10-29T00:54:42;97757.50;;;18.22;52.58
17209;BME280;8720;48.488;9.202;2022-10-29T00:57:15;97768.19;;;18.20;52.81
17209;BME280;8720;48.488;9.202;2022-10-29T00:59:46;97772.78;;;18.15;52.73
17209;BME280;8720;48.488;9.202;2022-10-29T01:02:14;97768.44;;;18.14;52.64
17209;BME280;8720;48.488;9.202;2022-10-29T01:04:44;97770.28;;;18.12;52.58
17209;BME280;8720;48.488;9.202;2022-10-29T01:07:11;97778.41;;;18.07;52.74
17209;BME280;8720;48.488;9.202;2022-10-29T01:09:39;97766.28;;;18.02;52.61
17209;BME280;8720;48.488;9.202;2022-10-29T01:12:47;97780.97;;;18.09;52.63
17209;BME280;8720;48.488;9.202;2022-10-29T01:15:28;97773.09;;;18.07;52.42
17209;BME280;8720;48.488;9.202;2022-10-29T01:18:12;97759.78;;;18.09;52.42
17209;BME280;8720;48.488;9.202;2022-10-29T01:21:33;97769.59;;;18.07;52.75
17209;BME280;8720;48.488;9.202;2022-10-29T01:24:51;97752.06;;;18.04;52.88
17209;BME280;8720;48.488;9.202;2022-10-29T01:28:04;97754.75;;;18.03;52.70
17209;BME280;8720;48.488;9.202;2022-10-29T01:31:03;97757.38;;;18.04;52.98
17209;BME280;8720;48.488;9.202;2022-10-29T01:33:40;97755.44;;;18.08;52.94
17209;BME280;8720;48.488;9.202;2022-10-29T01:36:22;97763.22;;;18.12;53.11
17209;BME280;8720;48.488;9.202;2022-10-29T01:39:04;97754.25;;;18.15;53.29
17209;BME280;8720;48.488;9.202;2022-10-29T01:41:42;97748.84;;;18.18;53.17
17209;BME280;8720;48.488;9.202;2022-10-29T01:44:27;97745.25;;;18.19;53.28
17209;BME280;8720;48.488;9.202;2022-10-29T01:46:59;97740.69;;;18.23;52.84
17209;BME280;8720;48.488;9.202;2022-10-29T01:49:33;97743.22;;;18.26;53.29
17209;BME280;8720;48.488;9.202;2022-10-29T01:52:04;97751.09;;;18.27;52.99
17209;BME280;8720;48.488;9.202;2022-10-29T01:54:32;97735.19;;;18.27;53.06
17209;BME280;8720;48.488;9.202;2022-10-29T01:57:00;97739.38;;;18.33;53.02
17209;BME280;8720;48.488;9.202;2022-10-29T01:59:30;97750.75;;;18.35;53.25
17209;BME280;8720;48.488;9.202;2022-10-29T02:05:08;97747.97;;;18.38;52.71
17209;BME280;8720;48.488;9.202;2022-10-29T02:07:48;97729.41;;;18.38;53.05
17209;BME280;8720;48.488;9.202;2022-10-29T02:10:25;97735.59;;;18.38;53.17
17209;BME280;8720;48.488;9.202;2022-10-29T02:12:55;97729.41;;;18.38;53.04
17209;BME280;8720;48.488;9.202;2022-10-29T02:15:29;97732.06;;;18.38;53.30
17209;BME280;8720;48.488;9.202;2022-10-29T02:18:00;97730.28;;;18.38;53.05
17209;BME280;8720;48.488;9.202;2022-10-29T02:20:29;97732.06;;;18.38;53.31
17209;BME280;8720;48.488;9.202;2022-10-29T02:22:57;97723.28;;;18.37;53.19
17209;BME280;8720;48.488;9.202;2022-10-29T02:25:24;97718.09;;;18.34;53.22
17209;BME280;8720;48.488;9.202;2022-10-29T02:27:51;97716.47;;;18.32;52.82
17209;BME280;8720;48.488;9.202;2022-10-29T02:30:19;97712.06;;;18.31;53.36
17209;BME280;8720;48.488;9.202;2022-10-29T02:32:46;97714.88;;;18.28;53.08
17209;BME280;8720;48.488;9.202;2022-10-29T02:35:13;97709.50;;;18.29;53.35
17209;BME280;8720;48.488;9.202;2022-10-29T02:37:42;97713.81;;;18.32;53.10
17209;BME280;8720;48.488;9.202;2022-10-29T02:40:10;97709.31;;;18.34;53.37
17209;BME280;8720;48.488;9.202;2022-10-29T02:42:38;97706.59;;;18.35;53.21
17209;BME280;8720;48.488;9.202;2022-10-29T02:45:06;97702.91;;;18.38;53.15
17209;BME280;8720;48.488;9.202;2022-10-29T02:47:35;97711.66;;;18.40;53.05
17209;BME280;8720;48.488;9.202;2022-10-29T02:50:03;97700.13;;;18.42;53.31
17209;BME280;8720;48.488;9.202;2022-10-29T02:52:30;97700.00;;;18.45;53.18
17209;BME280;8720;48.488;9.202;2022-10-29T02:54:59;97702.56;;;18.47;53.36
17209;BME280;8720;48.488;9.202;2022-10-29T02:57:26;97703.38;;;18.49;53.26
17209;BME280;8720;48.488;9.202;2022-10-29T02:59:53;97703.28;;;18.50;53.08
17209;BME280;8720;48.488;9.202;2022-10-29T03:02:20;97695.25;;;18.52;53.21
17209;BME280;8720;48.488;9.202;2022-10-29T03:04:47;97696.06;;;18.54;53.21
17209;BME280;8720;48.488;9.202;2022-10-29T03:07:14;97704.72;;;18.57;53.12
17209;BME280;8720;48.488;9.202;2022-10-29T03:09:42;97695.88;;;18.58;53.18
17209;BME280;8720;48.488;9.202;2022-10-29T03:12:10;97702.03;;;18.59;53.29
17209;BME280;8720;48.488;9.202;2022-10-29T03:14:37;97694.91;;;18.59;52.86
17209;BME280;8720;48.488;9.202;2022-10-29T03:17:04;97693.94;;;18.62;53.24
17209;BME280;8720;48.488;9.202;2022-10-29T03:19:31;97685.09;;;18.61;52.54
17209;BME280;8720;48.488;9.202;2022-10-29T03:21:59;97682.53;;;18.60;52.71
17209;BME280;8720;48.488;9.202;2022-10-29T03:24:26;97693.13;;;18.60;53.09
17209;BME280;8720;48.488;9.202;2022-10-29T03:26:53;97681.03;;;18.54;52.99
17209;BME280;8720;48.488;9.202;2022-10-29T03:29:22;97682.63;;;18.58;52.76
17209;BME280;8720;48.488;9.202;2022-10-29T03:31:49;97690.34;;;18.63;53.21
17209;BME280;8720;48.488;9.202;2022-10-29T03:34:16;97692.88;;;18.66;52.74
17209;BME280;8720;48.488;9.202;2022-10-29T03:36:44;97682.63;;;18.58;53.06
17209;BME280;8720;48.488;9.202;2022-10-29T03:39:11;97693.72;;;18.66;53.03
17209;BME280;8720;48.488;9.202;2022-10-29T03:41:38;97692.88;;;18.66;53.05
17209;BME280;8720;48.488;9.202;2022-10-29T03:44:05;97692.06;;;18.64;53.40
17209;BME280;8720;48.488;9.202;2022-10-29T03:46:34;97696.50;;;18.63;53.31
17209;BME280;8720;48.488;9.202;2022-10-29T03:49:01;97695.72;;;18.61;53.02
17209;BME280;8720;48.488;9.202;2022-10-29T03:51:28;97689.16;;;18.50;53.12
17209;BME280;8720;48.488;9.202;2022-10-29T03:53:55;97707.25;;;18.60;53.09
17209;BME280;8720;48.488;9.202;2022-10-29T03:56:22;97698.44;;;18.60;52.87
17209;BME280;8720;48.488;9.202;2022-10-29T03:58:49;97688.00;;;18.57;53.02
17209;BME280;8720;48.488;9.202;2022-10-29T04:01:16;97699.44;;;18.57;53.33
17209;BME280;8720;48.488;9.202;2022-10-29T04:03:45;97700.22;;;18.59;53.57
17209;BME280;8720;48.488;9.202;2022-10-29T04:06:14;97694.09;;;18.59;53.27
17209;BME280;8720;48.488;9.202;2022-10-29T04:08:43;97686.97;;;18.59;53.33
17209;BME280;8720;48.488;9.202;2022-10-29T04:11:12;97684.41;;;18.58;53.22
17209;BME280;8720;48.488;9.202;2022-10-29T04:13:39;97687.91;;;18.58;53.05
17209;BME280;8720;48.488;9.202;2022-10-29T04:16:07;97688.78;;;18.59;53.24
17209;BME280;8720;48.488;9.202;2022-10-29T04:18:34;97699.38;;;18.59;53.31
17209;BME280;8720;48.488;9.202;2022-10-29T04:21:06;97697.50;;;18.61;53.25
17209;BME280;8720;48.488;9.202;2022-10-29T04:23:33;97685.19;;;18.60;53.48
17209;BME280;8720;48.488;9.202;2022-10-29T04:26:00;97681.81;;;18.56;53.42
17209;BME280;8720;48.488;9.202;2022-10-29T04:28:27;97685.00;;;18.64;53.28
17209;BME280;8720;48.488;9.202;2022-10-29T04:30:55;97684.84;;;18.67;53.40
17209;BME280;8720;48.488;9.202;2022-10-29T04:33:22;97685.72;;;18.68;52.92
17209;BME280;8720;48.488;9.202;2022-10-29T04:35:53;97690.94;;;18.69;53.08
17209;BME280;8720;48.488;9.202;2022-10-29T04:38:21;97687.28;;;18.72;53.37
17209;BME280;8720;48.488;9.202;2022-10-29T04:40:49;97684.56;;;18.73;53.32
17209;BME280;8720;48.488;9.202;2022-10-29T04:43:16;97688.13;;;18.72;53.38
17209;BME280;8720;48.488;9.202;2022-10-29T04:45:49;97681.84;;;18.75;52.97
17209;BME280;8720;48.488;9.202;2022-10-29T04:48:16;97679.09;;;18.76;53.49
17209;BME280;8720;48.488;9.202;2022-10-29T04:50:44;97680.84;;;18.77;53.72
17209;BME280;8720;48.488;9.202;2022-10-29T04:55:47;97659.19;;;18.68;52.95
17209;BME280;8720;48.488;9.202;2022-10-29T04:58:18;97671.09;;;18.78;53.14
17209;BME280;8720;48.488;9.202;2022-10-29T05:00:45;97672.03;;;18.77;53.24
17209;BME280;8720;48.488;9.202;2022-10-29T05:03:13;97664.94;;;18.77;53.49
17209;BME280;8720;48.488;9.202;2022-10-29T05:05:40;97659.84;;;18.73;53.58
17209;BME280;8720;48.488;9.202;2022-10-29T05:08:10;97679.19;;;18.75;53.59
17209;BME280;8720;48.488;9.202;2022-10-29T05:10:39;97673.31;;;18.68;53.37
17209;BME280;8720;48.488;9.202;2022-10-29T05:13:10;97673.25;;;18.70;53.30
17209;BME280;8720;48.488;9.202;2022-10-29T05:15:38;97672.56;;;18.65;53.20
17209;BME280;8720;48.488;9.202;2022-10-29T05:18:07;97679.81;;;18.61;53.67
17209;BME280;8720;48.488;9.202;2022-10-29T05:20:35;97670.34;;;18.56;53.62
17209;BME280;8720;48.488;9.202;2022-10-29T05:23:04;97652.59;;;18.38;53.50
17209;BME280;8720;48.488;9.202;2022-10-29T05:25:35;97665.72;;;18.41;53.69
17209;BME280;8720;48.488;9.202;2022-10-29T05:28:05;97676.97;;;18.46;53.51
17209;BME280;8720;48.488;9.202;2022-10-29T05:30:35;97678.91;;;18.42;53.76
17209;BME280;8720;48.488;9.202;2022-10-29T05:33:05;97668.56;;;18.36;53.37
17209;BME280;8720;48.488;9.202;2022-10-29T05:35:33;97671.34;;;18.33;53.58
17209;BME280;8720;48.488;9.202;2022-10-29T05:38:01;97669.84;;;18.28;53.84
17209;BME280;8720;48.488;9.202;2022-10-29T05:40:28;97672.94;;;18.17;53.51
17209;BME280;8720;48.488;9.202;2022-10-29T05:42:56;97676.47;;;18.17;53.75
17209;BME280;8720;48.488;9.202;2022-10-29T05:45:24;97661.97;;;18.06;54.10
17209;BME280;8720;48.488;9.202;2022-10-29T05:47:56;97683.16;;;18.06;54.07
17209;BME280;8720;48.488;9.202;2022-10-29T05:50:24;97683.72;;;17.92;53.88
17209;BME280;8720;48.488;9.202;2022-10-29T05:52:55;97691.41;;;17.98;54.14
17209;BME280;8720;48.488;9.202;2022-10-29T05:55:25;97689.09;;;17.91;53.84
17209;BME280;8720;48.488;9.202;2022-10-29T05:57:55;97692.88;;;17.85;54.16
17209;BME280;8720;48.488;9.202;2022-10-29T06:00:23;97690.34;;;17.82;54.45
17209;BME280;8720;48.488;9.202;2022-10-29T06:02:51;97680.94;;;17.75;54.53
17209;BME280;8720;48.488;9.202;2022-10-29T06:05:19;97695.22;;;17.71;54.66
17209;BME280;8720;48.488;9.202;2022-10-29T06:07:52;97691.78;;;17.69;54.50
17209;BME280;8720;48.488;9.202;2022-10-29T06:10:20;97694.97;;;17.97;54.88
17209;BME280;8720;48.488;9.202;2022-10-29T06:12:48;97687.50;;;17.87;54.58
17209;BME280;8720;48.488;9.202;2022-10-29T06:15:16;97681.66;;;17.79;54.52
17209;BME280;8720;48.488;9.202;2022-10-29T06:17:44;97689.78;;;17.74;54.41
17209;BME280;8720;48.488;9.202;2022-10-29T06:20:13;97696.94;;;17.72;54.83
17209;BME280;8720;48.488;9.202;2022-10-29T06:22:42;97696.09;;;17.72;54.68
17209;BME280;8720;48.488;9.202;2022-10-29T06:25:09;97700.50;;;17.71;54.64
17209;BME280;8720;48.488;9.202;2022-10-29T06:27:36;97700.59;;;17.70;54.79
17209;BME280;8720;48.488;9.202;2022-10-29T06:30:06;97707.50;;;17.72;54.95
17209;BME280;8720;48.488;9.202;2022-10-29T06:32:33;97698.66;;;17.73;54.88
17209;BME280;8720;48.488;9.202;2022-10-29T06:35:00;97698.59;;;17.75;54.85
17209;BME280;8720;48.488;9.202;2022-10-29T06:37:27;97702.91;;;17.77;54.59
17209;BME280;8720;48.488;9.202;2022-10-29T06:39:59;97704.56;;;17.80;54.84
17209;BME280;8720;48.488;9.202;2022-10-29T06:42:26;97705.31;;;17.83;54.91
17209;BME280;8720;48.488;9.202;2022-10-29T06:44:53;97706.09;;;17.85;54.66
17209;BME280;8720;48.488;9.202;2022-10-29T06:47:20;97698.09;;;17.87;54.64
17209;BME280;8720;48.488;9.202;2022-10-29T06:49:48;97700.53;;;17.91;54.93
17209;BME280;8720;48.488;9.202;2022-10-29T06:52:15;97694.25;;;17.94;54.84
17209;BME280;8720;48.488;9.202;2022-10-29T06:54:42;97692.31;;;17.97;55.13
17209;BME280;8720;48.488;9.202;2022-10-29T06:57:11;97695.66;;;18.02;54.74
17209;BME280;8720;48.488;9.202;2022-10-29T06:59:38;97697.25;;;18.06;54.75
17209;BME280;8720;48.488;9.202;2022-10-29T07:02:05;97697.00;;;18.12;54.95
17209;BME280;8720;48.488;9.202;2022-10-29T07:04:32;97680.69;;;18.01;54.86
17209;BME280;8720;48.488;9.202;2022-10-29T07:06:59;97696.53;;;18.23;55.08
17209;BME280;8720;48.488;9.202;2022-10-29T07:09:27;97698.75;;;18.32;55.05
17209;BME280;8720;48.488;9.202;2022-10-29T07:11:54;97703.69;;;18.41;55.19
17209;BME280;8720;48.488;9.202;2022-10-29T07:14:22;97705.00;;;18.51;55.06
17209;BME280;8720;48.488;9.202;2022-10-29T07:16:49;97702.78;;;18.61;54.88
17209;BME280;8720;48.488;9.202;2022-10-29T07:19:17;97714.63;;;18.72;55.01
17209;BME280;8720;48.488;9.202;2022-10-29T07:21:44;97714.16;;;18.83;54.95
17209;BME280;8720;48.488;9.202;2022-10-29T07:24:11;97708.50;;;18.90;54.80
17209;BME280;8720;48.488;9.202;2022-10-29T07:26:39;97701.84;;;19.00;54.44
17209;BME280;8720;48.488;9.202;2022-10-29T07:29:06;97710.25;;;19.10;54.29
17209;BME280;8720;48.488;9.202;2022-10-29T07:31:35;97701.06;;;19.17;54.14
17209;BME280;8720;48.488;9.202;2022-10-29T07:34:02;97705.22;;;19.23;53.90
17209;BME280;8720;48.488;9.202;2022-10-29T07:36:29;97709.22;;;19.31;54.02
17209;BME280;8720;48.488;9.202;2022-10-29T07:38:57;97713.41;;;19.37;54.12
17209;BME280;8720;48.488;9.202;2022-10-29T07:41:24;97712.25;;;19.42;53.90
17209;BME280;8720;48.488;9.202;2022-10-29T07:43:51;97716.34;;;19.49;53.69
17209;BME280;8720;48.488;9.202;2022-10-29T07:46:18;97710.81;;;19.54;53.68
17209;BME280;8720;48.488;9.202;2022-10-29T07:48:47;97709.66;;;19.59;53.39
17209;BME280;8720;48.488;9.202;2022-10-29T07:51:14;97719.88;;;19.67;53.79
17209;BME280;8720;48.488;9.202;2022-10-29T07:53:41;97713.28;;;19.75;53.21
17209;BME280;8720;48.488;9.202;2022-10-29T07:56:08;97711.97;;;19.84;53.22
17209;BME280;8720;48.488;9.202;2022-10-29T07:58:35;97709.72;;;19.93;53.41
17209;BME280;8720;48.488;9.202;2022-10-29T08:01:03;97712.00;;;20.01;52.79
17209;BME280;8720;48.488;9.202;2022-10-29T08:03:30;97709.81;;;20.09;53.18
17209;BME280;8720;48.488;9.202;2022-10-29T08:05:59;97713.94;;;20.15;52.89
17209;BME280;8720;48.488;9.202;2022-10-29T08:08:27;97713.59;;;20.22;52.69
17209;BME280;8720;48.488;9.202;2022-10-29T08:10:59;97714.28;;;20.26;52.70
17209;BME280;8720;48.488;9.202;2022-10-29T08:13:26;97711.16;;;20.35;52.42
17209;BME280;8720;48.488;9.202;2022-10-29T08:15:54;97712.72;;;20.39;52.67
17209;BME280;8720;48.488;9.202;2022-10-29T08:18:21;97715.91;;;20.45;52.27
17209;BME280;8720;48.488;9.202;2022-10-29T08:20:48;97706.16;;;20.46;52.44
17209;BME280;8720;48.488;9.202;2022-10-29T08:23:17;97714.75;;;20.51;52.26
17209;BME280;8720;48.488;9.202;2022-10-29T08:25:44;97710.97;;;20.55;52.50
17209;BME280;8720;48.488;9.202;2022-10-29T08:28:14;97717.88;;;20.59;52.15
17209;BME280;8720;48.488;9.202;2022-10-29T08:30:42;97713.22;;;20.62;51.72
17209;BME280;8720;48.488;9.202;2022-10-29T08:33:12;97711.19;;;20.67;51.93
17209;BME280;8720;48.488;9.202;2022-10-29T08:35:42;97715.25;;;20.74;51.60
17209;BME280;8720;48.488;9.202;2022-10-29T08:38:10;97716.63;;;20.81;52.04
17209;BME280;8720;48.488;9.202;2022-10-29T08:40:58;97717.22;;;20.87;51.94
17209;BME280;8720;48.488;9.202;2022-10-29T08:44:00;97715.19;;;20.92;52.26
17209;BME280;8720;48.488;9.202;2022-10-29T08:46:43;97717.44;;;20.99;51.95
17209;BME280;8720;48.488;9.202;2022-10-29T08:49:18;97713.53;;;21.06;51.74
17209;BME280;8720;48.488;9.202;2022-10-29T08:51:55;97712.34;;;21.12;51.73
17209;BME280;8720;48.488;9.202;2022-10-29T08:54:29;97712.00;;;21.18;51.90
17209;BME280;8720;48.488;9.202;2022-10-29T08:57:06;97713.41;;;21.25;51.38
17209;BME280;8720;48.488;9.202;2022-10-29T08:59:48;97719.41;;;21.28;51.72
17209;BME280;8720;48.488;9.202;2022-10-29T09:02:24;97720.78;;;21.35;51.42
17209;BME280;8720;48.488;9.202;2022-10-29T09:04:51;97716.81;;;21.42;51.41
17209;BME280;8720;48.488;9.202;2022-10-29T09:07:37;97722.66;;;21.49;51.47
17209;BME280;8720;48.488;9.202;2022-10-29T09:10:16;97725.09;;;21.53;51.23
17209;BME280;8720;48.488;9.202;2022-10-29T09:13:25;97723.00;;;21.58;51.36
17209;BME280;8720;48.488;9.202;2022-10-29T09:16:20;97722.66;;;21.64;51.57
17209;BME280;8720;48.488;9.202;2022-10-29T09:19:11;97722.91;;;21.76;51.30
17209;BME280;8720;48.488;9.202;2022-10-29T09:21:55;97719.06;;;21.81;51.35
17209;BME280;8720;48.488;9.202;2022-10-29T09:24:33;97720.88;;;21.96;50.69
17209;BME280;8720;48.488;9.202;2022-10-29T09:27:13;97722.03;;;22.06;50.65
17209;BME280;8720;48.488;9.202;2022-10-29T09:30:00;97711.78;;;22.14;51.08
17209;BME280;8720;48.488;9.202;2022-10-29T09:32:33;97710.28;;;22.24;50.76
17209;BME280;8720;48.488;9.202;2022-10-29T09:35:10;97704.41;;;22.33;50.31
17209;BME280;8720;48.488;9.202;2022-10-29T09:37:46;97717.97;;;22.44;50.53
17209;BME280;8720;48.488;9.202;2022-10-29T09:40:27;97697.78;;;22.54;50.26
17209;BME280;8720;48.488;9.202;2022-10-29T09:42:59;97698.09;;;22.64;50.17
17209;BME280;8720;48.488;9.202;2022-10-29T09:45:44;97697.56;;;22.73;50.15
17209;BME280;8720;48.488;9.202;2022-10-29T09:48:20;97693.53;;;22.80;50.00
17209;BME280;8720;48.488;9.202;2022-10-29T09:51:00;97690.28;;;22.89;49.92
17209;BME280;8720;48.488;9.202;2022-10-29T09:53:28;97690.50;;;23.00;49.15
17209;BME280;8720;48.488;9.202;2022-10-29T09:55:55;97691.72;;;23.09;49.36
17209;BME280;8720;48.488;9.202;2022-10-29T09:58:25;97692.22;;;23.15;49.08
17209;BME280;8720;48.488;9.202;2022-10-29T10:00:55;97691.91;;;23.20;49.05
17209;BME280;8720;48.488;9.202;2022-10-29T10:03:29;97683.72;;;23.23;49.18
17209;BME280;8720;48.488;9.202;2022-10-29T10:06:01;97680.00;;;23.25;49.05
17209;BME280;8720;48.488;9.202;2022-10-29T10:08:31;97678.81;;;23.29;49.27
17209;BME280;8720;48.488;9.202;2022-10-29T10:11:05;97676.88;;;23.33;49.00
17209;BME280;8720;48.488;9.202;2022-10-29T10:13:35;97670.25;;;23.38;48.88
17209;BME280;8720;48.488;9.202;2022-10-29T10:16:06;97672.16;;;23.51;48.70
17209;BME280;8720;48.488;9.202;2022-10-29T10:18:41;97676.00;;;23.59;48.96
17209;BME280;8720;48.488;9.202;2022-10-29T10:21:12;97667.59;;;23.65;48.57
17209;BME280;8720;48.488;9.202;2022-10-29T10:23:44;97669.78;;;23.73;48.48
17209;BME280;8720;48.488;9.202;2022-10-29T10:26:33;97664.03;;;23.79;48.54
17209;BME280;8720;48.488;9.202;2022-10-29T10:29:20;97665.53;;;23.83;48.23
17209;BME280;8720;48.488;9.202;2022-10-29T10:32:09;97664.25;;;23.88;48.38
17209;BME280;8720;48.488;9.202;2022-10-29T10:34:38;97668.16;;;23.97;48.11
17209;BME280;8720;48.488;9.202;2022-10-29T10:37:15;97665.00;;;24.04;48.32
17209;BME280;8720;48.488;9.202;2022-10-29T10:39:47;97658.16;;;24.13;48.19
17209;BME280;8720;48.488;9.202;2022-10-29T10:42:20;97650.34;;;24.22;48.00
17209;BME280;8720;48.488;9.202;2022-10-29T10:44:51;97655.09;;;24.31;47.96
17209;BME280;8720;48.488;9.202;2022-10-29T10:47:24;97652.66;;;24.41;47.69
17209;BME280;8720;48.488;9.202;2022-10-29T10:49:53;97647.72;;;24.48;47.33
17209;BME280;8720;48.488;9.202;2022-10-29T10:52:26;97661.31;;;24.57;47.75
17209;BME280;8720;48.488;9.202;2022-10-29T10:54:59;97644.81;;;24.63;47.21
17209;BME280;8720;48.488;9.202;2022-10-29T10:57:33;97646.97;;;24.71;47.10
17209;BME280;8720;48.488;9.202;2022-10-29T11:00:08;97642.19;;;24.76;47.16
17209;BME280;8720;48.488;9.202;2022-10-29T11:02:51;97638.97;;;24.83;46.90
17209;BME280;8720;48.488;9.202;2022-10-29T11:05:23;97630.38;;;24.91;46.79
17209;BME280;8720;48.488;9.202;2022-10-29T11:08:00;97636.06;;;24.99;46.68
17209;BME280;8720;48.488;9.202;2022-10-29T11:10:42;97637.31;;;25.06;46.76
17209;BME280;8720;48.488;9.202;2022-10-29T11:13:15;97638.38;;;25.16;46.08
17209;BME280;8720;48.488;9.202;2022-10-29T11:15:53;97639.50;;;25.24;46.45
17209;BME280;8720;48.488;9.202;2022-10-29T11:18:31;97629.84;;;25.35;46.34
17209;BME280;8720;48.488;9.202;2022-10-29T11:21:10;97617.06;;;25.38;46.33
17209;BME280;8720;48.488;9.202;2022-10-29T11:23:47;97623.91;;;25.55;46.38
17209;BME280;8720;48.488;9.202;2022-10-29T11:26:29;97622.22;;;25.65;45.93
17209;BME280;8720;48.488;9.202;2022-10-29T11:29:11;97619.00;;;25.72;45.73
17209;BME280;8720;48.488;9.202;2022-10-29T11:31:52;97615.75;;;25.80;45.66
17209;BME280;8720;48.488;9.202;2022-10-29T11:34:37;97617.00;;;25.87;45.77
17209;BME280;8720;48.488;9.202;2022-10-29T11:37:30;97617.47;;;25.92;45.60
17209;BME280;8720;48.488;9.202;2022-10-29T11:40:03;97617.03;;;25.98;45.67
17209;BME280;8720;48.488;9.202;2022-10-29T11:42:32;97601.31;;;26.04;45.46
17209;BME280;8720;48.488;9.202;2022-10-29T11:45:01;97600.28;;;26.07;45.06
17209;BME280;8720;48.488;9.202;2022-10-29T11:47:58;97602.97;;;26.18;45.08
17209;BME280;8720;48.488;9.202;2022-10-29T11:50:41;97596.03;;;26.27;44.85
17209;BME280;8720;48.488;9.202;2022-10-29T11:53:33;97586.78;;;26.31;44.83
17209;BME280;8720;48.488;9.202;2022-10-29T11:56:13;97584.00;;;26.43;44.42
17209;BME280;8720;48.488;9.202;2022-10-29T11:58:52;97587.78;;;26.52;44.57
17209;BME280;8720;48.488;9.202;2022-10-29T12:01:35;97591.81;;;26.57;44.16
17209;BME280;8720;48.488;9.202;2022-10-29T12:04:29;97580.59;;;26.63;44.07
17209;BME280;8720;48.488;9.202;2022-10-29T12:07:21;97573.81;;;26.70;43.98
17209;BME280;8720;48.488;9.202;2022-10-29T12:10:37;97576.22;;;26.73;44.25
17209;BME280;8720;48.488;9.202;2022-10-29T12:13:21;97564.88;;;26.81;43.23
17209;BME280;8720;48.488;9.202;2022-10-29T12:16:08;97560.63;;;26.89;42.98
17209;BME280;8720;48.488;9.202;2022-10-29T12:18:46;97567.06;;;26.98;42.31
17209;BME280;8720;48.488;9.202;2022-10-29T12:21:27;97554.00;;;27.05;42.42
17209;BME280;8720;48.488;9.202;2022-10-29T12:24:26;97552.75;;;27.09;42.32
17209;BME280;8720;48.488;9.202;2022-10-29T12:27:07;97555.56;;;27.18;41.85
17209;BME280;8720;48.488;9.202;2022-10-29T12:29:47;97545.28;;;27.23;41.90
17209;BME280;8720;48.488;9.202;2022-10-29T12:32:25;97546.34;;;27.32;41.28
17209;BME280;8720;48.488;9.202;2022-10-29T12:35:00;97539.78;;;27.36;41.23
17209;BME280;8720;48.488;9.202;2022-10-29T12:37:38;97548.78;;;27.46;41.28
17209;BME280;8720;48.488;9.202;2022-10-29T12:40:17;97548.25;;;27.52;40.91
17209;BME280;8720;48.488;9.202;2022-10-29T12:42:48;97545.06;;;27.58;40.36
17209;BME280;8720;48.488;9.202;2022-10-29T12:45:33;97541.00;;;27.63;40.61
17209;BME280;8720;48.488;9.202;2022-10-29T12:48:10;97536.84;;;27.70;40.71
17209;BME280;8720;48.488;9.202;2022-10-29T12:50:52;97539.97;;;27.75;40.77
17209;BME280;8720;48.488;9.202;2022-10-29T12:53:33;97542.00;;;27.83;40.64
17209;BME280;8720;48.488;9.202;2022-10-29T12:56:06;97536.13;;;27.89;40.19
17209;BME280;8720;48.488;9.202;2022-10-29T12:58:48;97525.13;;;27.92;40.57
17209;BME280;8720;48.488;9.202;2022-10-29T13:01:45;97528.41;;;27.96;40.35
17209;BME280;8720;48.488;9.202;2022-10-29T13:04:27;97519.81;;;28.02;40.51
17209;BME280;8720;48.488;9.202;2022-10-29T13:07:02;97524.69;;;28.08;39.99
17209;BME280;8720;48.488;9.202;2022-10-29T13:09:32;97513.94;;;28.08;40.00
17209;BME280;8720;48.488;9.202;2022-10-29T13:12:07;97519.22;;;28.19;40.16
17209;BME280;8720;48.488;9.202;2022-10-29T13:14:40;97522.34;;;28.24;39.98
17209;BME280;8720;48.488;9.202;2022-10-29T13:17:30;97520.97;;;28.29;40.15
17209;BME280;8720;48.488;9.202;2022-10-29T13:20:04;97513.22;;;28.36;40.21
17209;BME280;8720;48.488;9.202;2022-10-29T13:22:53;97507.44;;;28.40;40.01
17209;BME280;8720;48.488;9.202;2022-10-29T13:25:45;97499.22;;;28.42;40.27
17209;BME280;8720;48.488;9.202;2022-10-29T13:28:50;97505.03;;;28.47;40.59
17209;BME280;8720;48.488;9.202;2022-10-29T13:31:45;97507.50;;;28.50;40.40
17209;BME280;8720;48.488;9.202;2022-10-29T13:34:52;97502.94;;;28.50;40.17
17209;BME280;8720;48.488;9.202;2022-10-29T13:37:53;97509.91;;;28.53;39.94
17209;BME280;8720;48.488;9.202;2022-10-29T13:41:13;97514.41;;;28.52;40.51
17209;BME280;8720;48.488;9.202;2022-10-29T13:43:52;97508.38;;;28.60;40.00
17209;BME280;8720;48.488;9.202;2022-10-29T13:46:40;97505.59;;;28.61;39.61
17209;BME280;8720;48.488;9.202;2022-10-29T13:49:15;97508.84;;;28.65;39.38
17209;BME280;8720;48.488;9.202;2022-10-29T13:51:52;97504.19;;;28.67;39.20